Time;durP1;ratioP1;P1;durP2;ratioP2;P2;SDS_P1;SDS_P2;PMS_P1;PMS_P2;Temp;Humidity;BMP_temperature;BMP_pressure;BME280_temperature;BME280_humidity;BME280_pressure;Samples;Min_cycle;Max_cycle;Signal;HPM_P1;HPM_P2
2021/09/28 00:01:41;;;;;;;58.23;2.40;;;16.70;1.00;;;;;;5048639;28;20469;-69
2021/09/28 00:04:08;;;;;;;58.07;2.57;;;16.50;1.00;;;;;;5048429;28;20447;-70
2021/09/28 00:06:36;;;;;;;58.17;2.60;;;16.40;1.00;;;;;;5046488;27;20950;-70
2021/09/28 00:09:05;;;;;;;58.17;2.70;;;16.20;1.00;;;;;;5051024;28;20852;-69
2021/09/28 00:11:32;;;;;;;58.70;3.53;;;16.10;1.00;;;;;;5051679;28;20545;-69
2021/09/28 00:14:00;;;;;;;57.97;2.67;;;16.00;1.00;;;;;;5051715;28;20485;-69
2021/09/28 00:16:27;;;;;;;57.97;2.40;;;15.80;1.00;;;;;;5051482;28;20472;-70
2021/09/28 00:18:54;;;;;;;58.23;2.70;;;15.70;1.00;;;;;;5051445;28;21011;-70
2021/09/28 00:21:21;;;;;;;58.37;2.67;;;15.60;1.00;;;;;;5051717;28;20950;-70
2021/09/28 00:23:49;;;;;;;58.23;2.70;;;15.40;1.00;;;;;;5051709;28;20445;-69
2021/09/28 00:26:16;;;;;;;58.40;2.60;;;15.30;1.00;;;;;;5051050;28;20540;-69
2021/09/28 00:28:43;;;;;;;58.27;2.70;;;15.20;1.00;;;;;;5051413;28;20557;-69
2021/09/28 00:31:10;;;;;;;58.23;2.50;;;15.10;1.00;;;;;;5051700;28;20464;-70
2021/09/28 00:33:37;;;;;;;58.57;2.63;;;15.00;1.00;;;;;;5051899;28;20485;-70
2021/09/28 00:36:04;;;;;;;58.33;2.70;;;14.80;1.00;;;;;;5051086;28;20896;-70
2021/09/28 00:38:31;;;;;;;58.27;2.70;;;14.70;1.00;;;;;;5050631;28;20468;-70
2021/09/28 00:41:00;;;;;;;58.37;2.60;;;14.60;1.00;;;;;;5031318;28;20484;-70
2021/09/28 00:43:26;;;;;;;58.23;2.60;;;14.60;1.00;;;;;;5031459;28;20623;-70
2021/09/28 00:45:53;;;;;;;58.57;2.70;;;14.50;1.00;;;;;;5031173;28;20545;-69
2021/09/28 00:48:20;;;;;;;58.27;2.80;;;14.50;1.00;;;;;;5145349;27;20467;-69
2021/09/28 00:50:47;;;;;;;58.47;2.70;;;14.40;1.00;;;;;;5156314;27;20467;-69
2021/09/28 00:53:14;;;;;;;58.47;2.70;;;14.40;1.00;;;;;;5156067;27;20851;-69
2021/09/28 00:55:41;;;;;;;58.33;2.60;;;14.40;1.00;;;;;;5156206;27;20536;-70
2021/09/28 00:58:09;;;;;;;58.27;2.73;;;14.30;1.00;;;;;;5156497;27;20550;-70
2021/09/28 01:00:38;;;;;;;58.47;2.73;;;14.30;1.00;;;;;;5156102;27;20444;-70
2021/09/28 01:03:06;;;;;;;58.67;2.80;;;14.20;1.00;;;;;;5156428;27;20440;-70
2021/09/28 01:05:33;;;;;;;58.60;2.70;;;14.10;1.00;;;;;;5155797;27;20853;-70
2021/09/28 01:08:00;;;;;;;58.77;2.90;;;14.10;1.00;;;;;;5156148;27;20795;-70
2021/09/28 01:10:27;;;;;;;58.57;2.83;;;14.00;1.00;;;;;;5156014;27;21016;-70
2021/09/28 01:12:54;;;;;;;58.47;2.80;;;14.00;1.00;;;;;;5087752;27;21024;-70
2021/09/28 01:15:22;;;;;;;58.57;3.00;;;14.00;1.00;;;;;;5050668;28;20543;-70
2021/09/28 01:17:49;;;;;;;58.50;2.77;;;13.90;1.00;;;;;;5050541;28;20471;-70
2021/09/28 01:20:16;;;;;;;58.80;3.33;;;14.00;1.00;;;;;;5050565;28;20806;-71
2021/09/28 01:22:44;;;;;;;58.47;2.80;;;13.90;1.00;;;;;;5050919;28;20875;-70
2021/09/28 01:25:12;;;;;;;58.67;2.90;;;13.90;1.00;;;;;;5050707;28;20548;-70
2021/09/28 01:27:40;;;;;;;58.67;2.90;;;13.80;1.00;;;;;;5050248;28;20465;-70
2021/09/28 01:30:09;;;;;;;58.63;2.80;;;13.80;1.00;;;;;;5050707;28;20971;-70
2021/09/28 01:32:36;;;;;;;58.53;2.90;;;13.80;1.00;;;;;;5050309;28;20484;-70
2021/09/28 01:35:05;;;;;;;58.27;2.70;;;13.80;1.00;;;;;;5050315;28;20527;-71
2021/09/28 01:37:31;;;;;;;58.33;2.70;;;13.80;1.00;;;;;;5050613;28;20557;-71
2021/09/28 01:40:00;;;;;;;58.50;2.60;;;13.70;1.00;;;;;;5050230;28;20948;-71
2021/09/28 01:42:26;;;;;;;58.17;2.70;;;13.70;1.00;;;;;;5050183;28;20527;-71
2021/09/28 01:44:53;;;;;;;58.27;2.60;;;13.60;1.00;;;;;;5050943;27;20571;-71
2021/09/28 01:47:20;;;;;;;58.47;2.60;;;13.60;1.00;;;;;;5049791;28;20559;-71
2021/09/28 01:49:47;;;;;;;58.33;2.70;;;13.60;1.00;;;;;;5050308;28;20450;-71
2021/09/28 01:52:14;;;;;;;58.27;2.50;;;13.60;1.00;;;;;;5050503;28;20451;-71
2021/09/28 01:54:43;;;;;;;58.23;2.63;;;13.60;1.00;;;;;;5050324;28;20484;-70
2021/09/28 01:57:11;;;;;;;58.57;2.63;;;13.50;1.00;;;;;;5047630;28;20532;-70
2021/09/28 01:59:38;;;;;;;58.60;2.70;;;13.50;1.00;;;;;;5050118;28;20529;-70
2021/09/28 02:02:05;;;;;;;58.27;2.70;;;13.60;1.00;;;;;;5050173;28;20940;-70
2021/09/28 02:04:32;;;;;;;58.50;2.60;;;13.60;1.00;;;;;;5050146;28;20433;-70
2021/09/28 02:06:59;;;;;;;58.43;2.63;;;13.60;1.00;;;;;;5049478;28;20483;-70
2021/09/28 02:09:26;;;;;;;58.37;2.60;;;13.60;1.00;;;;;;5049977;28;20468;-70
2021/09/28 02:11:53;;;;;;;58.40;2.53;;;13.60;1.00;;;;;;5050154;28;20570;-70
2021/09/28 02:14:26;;;;;;;58.50;2.80;;;13.50;1.00;;;;;;5050056;28;20484;-70
2021/09/28 02:16:54;;;;;;;58.37;2.60;;;13.50;1.00;;;;;;5049575;27;20480;-70
2021/09/28 02:19:20;;;;;;;58.33;2.53;;;13.50;1.00;;;;;;5050103;27;20826;-70
2021/09/28 02:21:47;;;;;;;58.53;2.87;;;13.50;1.00;;;;;;5049710;28;20531;-70
2021/09/28 02:24:15;;;;;;;58.37;2.70;;;13.40;1.00;;;;;;5049626;28;20532;-71
2021/09/28 02:26:42;;;;;;;58.50;2.67;;;13.40;1.00;;;;;;5049740;28;20452;-71
2021/09/28 02:29:10;;;;;;;58.57;2.70;;;13.40;1.00;;;;;;5049776;28;20469;-71
2021/09/28 02:31:39;;;;;;;58.53;2.67;;;13.40;1.00;;;;;;5048825;28;20460;-70
2021/09/28 02:34:09;;;;;;;58.70;3.00;;;13.40;1.00;;;;;;5049708;28;20533;-70
2021/09/28 02:36:36;;;;;;;58.37;2.80;;;13.30;1.00;;;;;;5049628;28;20464;-70
2021/09/28 02:39:04;;;;;;;58.27;2.70;;;13.30;1.00;;;;;;5049591;28;20547;-70
2021/09/28 02:41:31;;;;;;;58.33;2.67;;;13.30;1.00;;;;;;5049887;27;20835;-70
2021/09/28 02:43:59;;;;;;;58.67;2.80;;;13.30;1.00;;;;;;5049421;28;20448;-70
2021/09/28 02:46:26;;;;;;;58.47;2.77;;;13.40;1.00;;;;;;5049129;28;20886;-70
2021/09/28 02:48:54;;;;;;;58.00;2.80;;;13.40;1.00;;;;;;5049157;28;20464;-70
2021/09/28 02:51:21;;;;;;;58.57;2.80;;;13.40;1.00;;;;;;5048307;27;20456;-70
2021/09/28 02:53:48;;;;;;;58.47;2.80;;;13.40;1.00;;;;;;5049317;28;20518;-70
2021/09/28 02:56:14;;;;;;;58.53;2.63;;;13.40;1.00;;;;;;5048955;28;20901;-70
2021/09/28 02:58:41;;;;;;;58.43;2.70;;;13.40;1.00;;;;;;5049248;28;20469;-70
2021/09/28 03:01:08;;;;;;;58.23;2.70;;;13.40;1.00;;;;;;5049388;28;20547;-70
2021/09/28 03:03:35;;;;;;;58.60;2.70;;;13.40;1.00;;;;;;5049200;28;20447;-70
2021/09/28 03:06:03;;;;;;;58.50;2.70;;;13.40;1.00;;;;;;5048793;28;20454;-70
2021/09/28 03:08:32;;;;;;;58.37;2.63;;;13.30;1.00;;;;;;5049286;28;20472;-70
2021/09/28 03:10:59;;;;;;;58.37;2.60;;;13.30;1.00;;;;;;5048874;28;20448;-70
2021/09/28 03:13:26;;;;;;;58.30;2.70;;;13.30;1.00;;;;;;5048974;28;20553;-70
2021/09/28 03:15:52;;;;;;;58.47;2.60;;;13.30;1.00;;;;;;5048785;28;20482;-70
2021/09/28 03:18:19;;;;;;;58.47;2.63;;;13.30;1.00;;;;;;5048672;28;20466;-70
2021/09/28 03:20:46;;;;;;;58.23;2.43;;;13.40;1.00;;;;;;5049044;28;20539;-70
2021/09/28 03:23:14;;;;;;;58.47;2.50;;;13.40;1.00;;;;;;5047982;27;20446;-70
2021/09/28 03:25:41;;;;;;;58.17;2.60;;;13.40;1.00;;;;;;5048610;28;20447;-70
2021/09/28 03:28:08;;;;;;;58.03;2.60;;;13.40;1.00;;;;;;5048693;28;20489;-70
2021/09/28 03:30:37;;;;;;;58.57;3.00;;;13.40;1.00;;;;;;5048599;28;20466;-70
2021/09/28 03:33:04;;;;;;;58.40;2.60;;;13.30;1.00;;;;;;5048947;28;20461;-70
2021/09/28 03:35:31;;;;;;;58.27;2.50;;;13.30;1.00;;;;;;5048346;28;20543;-70
2021/09/28 03:37:58;;;;;;;58.37;2.77;;;13.30;1.00;;;;;;5048593;28;20850;-70
2021/09/28 03:40:29;;;;;;;58.17;2.40;;;13.20;1.00;;;;;;5048987;28;20458;-70
2021/09/28 03:42:56;;;;;;;58.33;2.60;;;13.10;1.00;;;;;;5050287;28;20879;-70
2021/09/28 03:45:24;;;;;;;58.27;2.77;;;13.10;1.00;;;;;;5051837;28;20536;-70
2021/09/28 03:47:51;;;;;;;58.47;2.80;;;13.10;1.00;;;;;;5052271;28;20468;-70
2021/09/28 03:50:17;;;;;;;58.27;2.67;;;13.00;1.00;;;;;;5052482;28;20445;-70
2021/09/28 03:52:44;;;;;;;58.37;2.70;;;13.10;1.00;;;;;;5052072;28;20536;-70
2021/09/28 03:55:14;;;;;;;58.60;3.00;;;13.00;1.00;;;;;;5050560;27;20484;-70
2021/09/28 03:57:42;;;;;;;58.30;2.70;;;13.00;1.00;;;;;;5051724;27;20468;-70
2021/09/28 04:00:10;;;;;;;58.33;2.70;;;13.00;1.00;;;;;;5051999;28;20467;-70
2021/09/28 04:02:37;;;;;;;58.50;2.73;;;13.00;1.00;;;;;;5052022;28;20487;-70
2021/09/28 04:05:04;;;;;;;58.27;2.57;;;12.90;1.00;;;;;;5051867;28;20466;-70
2021/09/28 04:07:31;;;;;;;58.33;2.90;;;12.90;1.00;;;;;;5051888;27;20471;-70
2021/09/28 04:10:00;;;;;;;58.40;2.67;;;12.80;1.00;;;;;;5052068;28;20444;-70
2021/09/28 04:12:27;;;;;;;58.27;2.47;;;12.80;1.00;;;;;;5051614;28;20982;-70
2021/09/28 04:14:57;;;;;;;58.37;2.67;;;12.70;1.00;;;;;;5052022;28;20483;-70
2021/09/28 04:17:24;;;;;;;58.37;2.60;;;12.70;1.00;;;;;;5051839;28;20521;-70
2021/09/28 04:19:51;;;;;;;58.47;2.80;;;12.60;1.00;;;;;;5051738;28;20444;-70
2021/09/28 04:22:18;;;;;;;58.37;2.80;;;12.60;1.00;;;;;;5051574;28;20540;-70
2021/09/28 04:24:45;;;;;;;58.83;3.10;;;12.60;1.00;;;;;;5051786;28;20450;-70
2021/09/28 04:27:12;;;;;;;58.43;2.70;;;12.60;1.00;;;;;;5051346;28;20553;-70
2021/09/28 04:29:39;;;;;;;58.27;2.60;;;12.50;1.00;;;;;;5052155;27;20898;-70
2021/09/28 04:32:08;;;;;;;58.37;2.70;;;12.50;1.00;;;;;;5051868;28;20470;-70
2021/09/28 04:34:35;;;;;;;58.37;2.70;;;12.50;1.00;;;;;;5051575;28;20485;-70
2021/09/28 04:37:03;;;;;;;58.27;2.60;;;12.50;1.00;;;;;;5051179;28;20974;-70
2021/09/28 04:39:30;;;;;;;58.33;2.43;;;12.40;1.00;;;;;;5051293;28;20542;-70
2021/09/28 04:41:57;;;;;;;58.27;2.63;;;12.40;1.00;;;;;;5051639;28;20482;-70
2021/09/28 04:44:24;;;;;;;58.27;2.70;;;12.40;1.00;;;;;;5051745;28;20520;-70
2021/09/28 04:46:51;;;;;;;58.27;2.80;;;12.40;1.00;;;;;;5050959;28;20900;-70
2021/09/28 04:49:19;;;;;;;58.50;2.83;;;12.40;1.00;;;;;;5051132;28;20527;-70
2021/09/28 04:51:46;;;;;;;58.33;2.60;;;12.30;1.00;;;;;;5051238;28;21030;-70
2021/09/28 04:54:13;;;;;;;58.23;2.60;;;12.30;1.00;;;;;;5050385;28;20478;-70
2021/09/28 04:56:40;;;;;;;58.90;2.90;;;12.30;1.00;;;;;;5050996;28;20822;-70
2021/09/28 04:59:06;;;;;;;58.53;2.70;;;12.30;1.00;;;;;;5051019;28;20502;-70
2021/09/28 05:01:34;;;;;;;58.37;2.70;;;12.30;1.00;;;;;;5049521;27;20452;-70
2021/09/28 05:04:01;;;;;;;58.60;2.60;;;12.20;1.00;;;;;;5051389;28;20450;-70
2021/09/28 05:06:29;;;;;;;58.57;2.90;;;12.20;1.00;;;;;;5050398;28;20539;-70
2021/09/28 05:08:56;;;;;;;58.57;2.80;;;12.20;1.00;;;;;;5050746;28;21031;-70
2021/09/28 05:11:23;;;;;;;58.67;2.70;;;12.30;1.00;;;;;;5050909;28;20448;-70
2021/09/28 05:13:51;;;;;;;58.70;3.00;;;12.30;1.00;;;;;;5051088;28;20491;-70
2021/09/28 05:16:18;;;;;;;58.63;2.73;;;12.30;1.00;;;;;;5050821;28;20809;-70
2021/09/28 05:18:45;;;;;;;58.47;2.70;;;12.40;1.00;;;;;;5050842;28;20523;-70
2021/09/28 05:21:12;;;;;;;58.27;2.80;;;12.40;1.00;;;;;;5050869;28;20916;-70
2021/09/28 05:23:45;;;;;;;58.27;2.67;;;12.40;1.00;;;;;;5051126;28;20450;-70
2021/09/28 05:26:13;;;;;;;58.47;3.20;;;12.50;1.00;;;;;;5050572;28;20546;-70
2021/09/28 05:28:40;;;;;;;58.37;2.83;;;12.50;1.00;;;;;;5050770;28;20472;-70
2021/09/28 05:31:06;;;;;;;58.57;2.97;;;12.50;1.00;;;;;;5050310;28;20551;-70
2021/09/28 05:33:33;;;;;;;58.53;2.70;;;12.50;1.00;;;;;;5049045;27;20449;-69
2021/09/28 05:36:00;;;;;;;58.67;2.70;;;12.60;1.00;;;;;;5050334;28;20484;-70
2021/09/28 05:38:27;;;;;;;58.27;2.70;;;12.60;1.00;;;;;;5050749;28;20488;-70
2021/09/28 05:40:55;;;;;;;58.50;2.90;;;12.70;1.00;;;;;;5050427;28;20474;-70
2021/09/28 05:43:22;;;;;;;58.47;2.63;;;12.70;1.00;;;;;;5050870;28;20444;-70
2021/09/28 05:45:49;;;;;;;58.27;2.70;;;12.70;1.00;;;;;;5050192;28;20547;-70
2021/09/28 05:48:16;;;;;;;58.27;2.60;;;12.80;1.00;;;;;;5050052;28;20476;-70
2021/09/28 05:50:45;;;;;;;58.30;2.80;;;12.80;1.00;;;;;;5050487;28;20536;-70
2021/09/28 05:53:12;;;;;;;58.23;2.50;;;12.80;1.00;;;;;;5050593;27;20448;-70
2021/09/28 05:55:39;;;;;;;58.70;2.80;;;12.80;1.00;;;;;;5049893;28;20560;-70
2021/09/28 05:58:07;;;;;;;58.43;3.00;;;12.80;1.00;;;;;;5050004;28;20475;-70
2021/09/28 06:00:34;;;;;;;58.37;2.67;;;12.80;1.00;;;;;;5050198;28;20451;-70
2021/09/28 06:03:01;;;;;;;58.37;2.50;;;12.80;1.00;;;;;;5050014;28;20513;-70
2021/09/28 06:05:28;;;;;;;58.07;2.83;;;12.80;1.00;;;;;;5048519;27;20873;-70
2021/09/28 06:07:55;;;;;;;58.27;2.70;;;12.80;1.00;;;;;;5049714;28;20468;-70
2021/09/28 06:10:22;;;;;;;58.60;3.00;;;12.80;1.00;;;;;;5049956;28;20539;-70
2021/09/28 06:12:49;;;;;;;58.33;2.70;;;12.90;1.00;;;;;;5050043;28;20820;-70
2021/09/28 06:15:17;;;;;;;58.17;2.70;;;13.00;1.00;;;;;;5049658;28;20515;-70
2021/09/28 06:17:44;;;;;;;58.23;2.80;;;13.00;1.00;;;;;;5049634;28;20555;-69
2021/09/28 06:20:12;;;;;;;58.17;2.60;;;13.10;1.00;;;;;;5049926;28;20456;-69
2021/09/28 06:22:39;;;;;;;58.57;2.83;;;13.20;1.00;;;;;;5050391;28;20531;-69
2021/09/28 06:25:06;;;;;;;58.53;3.20;;;13.20;1.00;;;;;;5049679;28;20445;-69
2021/09/28 06:27:33;;;;;;;58.33;2.80;;;13.30;1.00;;;;;;5049368;28;20475;-69
2021/09/28 06:30:00;;;;;;;57.97;2.50;;;13.30;1.00;;;;;;5049538;28;20470;-69
2021/09/28 06:32:28;;;;;;;58.20;2.60;;;13.40;1.00;;;;;;5049824;28;20534;-69
2021/09/28 06:34:55;;;;;;;58.40;2.57;;;13.50;1.00;;;;;;5049682;27;20519;-69
2021/09/28 06:37:22;;;;;;;58.33;2.70;;;13.60;1.00;;;;;;5047672;27;20586;-69
2021/09/28 06:39:49;;;;;;;58.33;2.70;;;13.70;1.00;;;;;;5049722;28;20447;-69
2021/09/28 06:42:16;;;;;;;58.27;2.77;;;13.70;1.00;;;;;;5049267;28;20541;-69
2021/09/28 06:44:43;;;;;;;58.20;2.70;;;13.80;1.00;;;;;;5049879;28;20531;-69
2021/09/28 06:47:10;;;;;;;58.13;2.60;;;13.70;1.00;;;;;;5049259;28;20523;-69
2021/09/28 06:49:40;;;;;;;58.17;2.70;;;13.70;1.00;;;;;;5049437;28;20531;-69
2021/09/28 06:52:07;;;;;;;58.30;2.70;;;13.70;1.00;;;;;;5049418;28;20548;-69
2021/09/28 06:54:34;;;;;;;58.13;2.60;;;13.80;1.00;;;;;;5049306;28;20503;-69
2021/09/28 06:57:01;;;;;;;58.20;2.70;;;13.90;1.00;;;;;;5048646;28;20449;-69
2021/09/28 06:59:28;;;;;;;58.07;2.60;;;13.90;1.00;;;;;;5049258;28;20486;-69
2021/09/28 07:01:55;;;;;;;58.27;2.80;;;14.00;1.00;;;;;;5049512;28;20450;-69
2021/09/28 07:04:22;;;;;;;59.40;3.30;;;14.00;1.00;;;;;;5049468;28;20444;-69
2021/09/28 07:06:50;;;;;;;58.27;3.30;;;14.00;1.00;;;;;;5048388;28;20453;-69
2021/09/28 07:09:17;;;;;;;58.40;2.70;;;14.00;1.00;;;;;;5126057;27;20444;-69
2021/09/28 07:11:43;;;;;;;57.90;2.47;;;14.10;1.00;;;;;;5153584;27;20531;-69
2021/09/28 07:14:10;;;;;;;58.30;3.00;;;14.20;1.00;;;;;;5153842;27;20834;-69
2021/09/28 07:16:37;;;;;;;57.97;2.60;;;14.30;1.00;;;;;;5153299;27;20535;-69
2021/09/28 07:19:04;;;;;;;58.60;3.10;;;14.40;1.00;;;;;;5153805;27;20547;-69
2021/09/28 07:21:31;;;;;;;58.97;3.43;;;14.50;1.00;;;;;;5154182;27;20440;-69
2021/09/28 07:23:59;;;;;;;58.50;3.43;;;14.70;1.00;;;;;;5153476;27;20451;-69
2021/09/28 07:26:26;;;;;;;58.47;3.00;;;14.80;1.00;;;;;;5153365;27;20849;-69
2021/09/28 07:28:53;;;;;;;58.40;2.90;;;15.00;1.00;;;;;;5153594;27;20902;-69
2021/09/28 07:31:20;;;;;;;58.60;3.50;;;15.00;1.00;;;;;;5153682;27;20492;-69
2021/09/28 07:33:47;;;;;;;58.27;3.00;;;15.10;1.00;;;;;;5153384;27;20913;-69
2021/09/28 07:36:13;;;;;;;58.67;3.30;;;15.00;1.00;;;;;;5153021;27;20920;-69
2021/09/28 07:38:42;;;;;;;58.30;2.80;;;15.00;1.00;;;;;;5152999;27;20462;-69
2021/09/28 07:41:11;;;;;;;58.30;2.90;;;15.10;1.00;;;;;;5047907;27;20460;-69
2021/09/28 07:43:38;;;;;;;57.90;2.67;;;15.10;1.00;;;;;;5048857;28;20477;-69
2021/09/28 07:46:05;;;;;;;58.40;3.13;;;15.20;1.00;;;;;;5048349;28;20450;-69
2021/09/28 07:48:32;;;;;;;58.40;3.23;;;15.30;1.00;;;;;;5048438;28;20465;-69
2021/09/28 07:50:59;;;;;;;58.80;3.43;;;15.40;1.00;;;;;;5048714;28;20453;-69
2021/09/28 07:53:26;;;;;;;57.93;2.60;;;15.50;1.00;;;;;;5049048;28;20450;-69
2021/09/28 07:55:53;;;;;;;58.70;3.73;;;15.60;1.00;;;;;;5048196;28;20490;-69
2021/09/28 07:58:22;;;;;;;57.97;2.40;;;15.60;1.00;;;;;;5048224;28;20477;-69
2021/09/28 08:00:49;;;;;;;58.17;2.70;;;15.50;1.00;;;;;;5048441;28;20487;-69
2021/09/28 08:03:15;;;;;;;58.10;2.60;;;15.40;1.00;;;;;;5048419;28;20464;-69
2021/09/28 08:05:43;;;;;;;57.87;2.60;;;15.30;1.00;;;;;;5047961;28;20468;-69
2021/09/28 08:08:10;;;;;;;58.17;2.80;;;15.20;1.00;;;;;;5048803;28;20886;-69
2021/09/28 08:10:36;;;;;;;60.20;2.70;;;15.10;1.00;;;;;;5049461;27;20536;-69
2021/09/28 08:13:05;;;;;;;58.70;3.30;;;15.10;1.00;;;;;;5048138;28;20532;-69
2021/09/28 08:15:34;;;;;;;58.13;2.80;;;15.00;1.00;;;;;;5047968;28;20481;-69
2021/09/28 08:18:01;;;;;;;58.90;3.47;;;15.00;1.00;;;;;;5048166;28;20973;-69
2021/09/28 08:20:28;;;;;;;58.27;2.97;;;15.10;1.00;;;;;;5048059;28;20448;-69
2021/09/28 08:22:56;;;;;;;58.03;2.50;;;15.40;1.00;;;;;;5048314;28;20455;-69
2021/09/28 08:25:33;;;;;;;58.27;3.03;;;15.70;1.00;;;;;;5048165;28;20453;-69
2021/09/28 08:30:55;;;;;;;57.87;2.60;;;16.20;1.00;;;;;;5026723;28;20529;-69
2021/09/28 08:33:21;;;;;;;58.50;2.77;;;16.20;1.00;;;;;;5051614;27;20450;-69
2021/09/28 08:35:48;;;;;;;58.13;2.40;;;16.20;1.00;;;;;;5051175;28;20485;-69
2021/09/28 08:38:15;;;;;;;58.17;2.67;;;16.20;1.00;;;;;;5051780;28;20913;-69
2021/09/28 08:40:42;;;;;;;58.57;3.27;;;16.20;1.00;;;;;;5051657;28;20949;-69
2021/09/28 08:43:09;;;;;;;58.17;2.70;;;16.30;1.00;;;;;;5051044;28;20559;-69
2021/09/28 08:45:36;;;;;;;58.07;2.83;;;16.30;1.00;;;;;;5051392;28;20530;-69
2021/09/28 08:48:05;;;;;;;58.10;2.77;;;16.50;1.00;;;;;;5050194;27;20481;-69
2021/09/28 08:50:32;;;;;;;58.17;2.70;;;16.50;1.00;;;;;;5051502;28;20539;-69
2021/09/28 08:53:01;;;;;;;58.40;2.97;;;16.60;1.00;;;;;;5051316;28;20451;-69
2021/09/28 08:55:28;;;;;;;58.27;2.70;;;16.60;1.00;;;;;;5050831;28;21006;-69
2021/09/28 08:58:14;;;;;;;58.17;2.40;;;16.50;1.00;;;;;;5050781;28;20471;-69
2021/09/28 09:00:41;;;;;;;57.97;2.73;;;16.50;1.00;;;;;;5051210;28;20451;-69
2021/09/28 09:03:25;;;;;;;58.07;2.70;;;16.50;1.00;;;;;;5050810;28;20459;-69
2021/09/28 09:05:52;;;;;;;58.17;2.80;;;16.50;1.00;;;;;;5050681;28;20455;-69
2021/09/28 09:08:24;;;;;;;57.93;2.40;;;16.50;1.00;;;;;;5051124;28;20498;-69
2021/09/28 09:11:00;;;;;;;58.17;2.30;;;16.60;1.00;;;;;;5051072;28;20538;-69
2021/09/28 09:13:36;;;;;;;58.07;2.50;;;16.70;1.00;;;;;;5051477;28;20505;-69
2021/09/28 09:16:04;;;;;;;57.90;2.43;;;16.80;1.00;;;;;;5050435;28;20483;-69
2021/09/28 09:18:33;;;;;;;58.03;2.57;;;16.90;1.00;;;;;;5048925;27;20554;-69
2021/09/28 09:21:01;;;;;;;58.07;2.47;;;17.10;1.00;;;;;;5051098;28;20458;-69
2021/09/28 09:23:32;;;;;;;58.37;2.90;;;17.30;1.00;;;;;;5050775;28;20451;-69
2021/09/28 09:26:02;;;;;;;58.03;2.60;;;17.40;1.00;;;;;;5050623;27;20451;-69
2021/09/28 09:28:32;;;;;;;58.10;2.63;;;17.40;1.00;;;;;;5050637;28;20468;-69
2021/09/28 09:31:12;;;;;;;58.00;2.63;;;17.60;1.00;;;;;;5050749;28;20528;-69
2021/09/28 09:33:40;;;;;;;58.30;2.80;;;18.00;1.00;;;;;;5050384;28;20452;-69
2021/09/28 09:36:07;;;;;;;58.33;2.40;;;18.70;1.00;;;;;;5050111;28;20575;-69
2021/09/28 09:38:41;;;;;;;58.17;2.50;;;19.50;1.00;;;;;;5050603;28;20475;-70
2021/09/28 09:41:09;;;;;;;58.40;2.60;;;19.80;1.00;;;;;;5050215;28;20461;-69
2021/09/28 09:43:36;;;;;;;58.10;2.40;;;20.30;1.00;;;;;;5050234;28;20457;-70
2021/09/28 09:46:11;;;;;;;57.67;2.60;;;21.00;1.00;;;;;;5049961;28;20529;-69
2021/09/28 09:48:41;;;;;;;58.17;2.80;;;21.10;1.00;;;;;;5050137;28;20967;-69
2021/09/28 09:51:10;;;;;;;57.93;2.33;;;20.80;1.00;;;;;;5049933;27;20939;-69
2021/09/28 09:53:49;;;;;;;59.03;3.90;;;20.30;1.00;;;;;;5050203;28;20549;-69
2021/09/28 09:56:16;;;;;;;58.30;2.50;;;20.10;1.00;;;;;;5049775;28;21005;-68
2021/09/28 09:58:43;;;;;;;57.83;2.57;;;20.10;1.00;;;;;;5050052;28;20993;-70
2021/09/28 10:01:10;;;;;;;57.83;3.10;;;20.90;1.00;;;;;;5050099;28;20536;-70
2021/09/28 10:03:38;;;;;;;57.37;2.30;;;21.50;1.00;;;;;;5050057;28;20452;-70
2021/09/28 10:06:07;;;;;;;59.10;2.73;;;21.40;1.00;;;;;;5049902;28;20967;-68
2021/09/28 10:08:39;;;;;;;58.00;2.70;;;20.90;1.00;;;;;;5049822;28;20471;-68
2021/09/28 10:11:06;;;;;;;57.97;2.50;;;20.70;1.00;;;;;;5050195;28;20449;-69
2021/09/28 10:13:52;;;;;;;57.80;2.63;;;21.30;1.00;;;;;;5050069;28;20540;-68
2021/09/28 10:16:40;;;;;;;57.97;3.07;;;22.50;1.00;;;;;;5049607;28;20851;-69
2021/09/28 10:19:40;;;;;;;58.47;2.60;;;22.90;1.00;;;;;;5049789;28;20476;-68
2021/09/28 10:22:28;;;;;;;57.87;2.60;;;23.50;1.00;;;;;;5050036;27;20444;-69
2021/09/28 10:25:33;;;;;;;58.50;2.70;;;23.60;1.00;;;;;;5049684;27;20455;-69
2021/09/28 10:28:32;;;;;;;57.73;2.50;;;23.90;1.00;;;;;;5049934;28;20558;-69
2021/09/28 10:31:00;;;;;;;57.93;2.40;;;23.60;1.00;;;;;;5042448;28;20563;-69
2021/09/28 10:33:30;;;;;;;61.43;6.20;;;23.10;1.00;;;;;;5049632;28;20448;-68
2021/09/28 10:35:58;;;;;;;57.67;2.80;;;22.60;1.00;;;;;;5049424;28;20516;-66
2021/09/28 10:38:53;;;;;;;58.10;2.30;;;22.30;1.00;;;;;;5049641;28;20485;-67
2021/09/28 10:41:59;;;;;;;57.90;2.63;;;22.10;1.00;;;;;;5049673;27;20452;-66
2021/09/28 10:44:51;;;;;;;57.90;2.40;;;22.50;1.00;;;;;;5049518;27;21030;-67
2021/09/28 10:47:50;;;;;;;57.73;2.50;;;23.00;1.00;;;;;;5048854;28;20468;-66
2021/09/28 10:50:22;;;;;;;57.67;2.60;;;23.50;1.00;;;;;;5049391;28;20458;-67
2021/09/28 10:52:49;;;;;;;57.80;2.53;;;23.90;1.00;;;;;;5048834;28;20449;-67
2021/09/28 10:55:22;;;;;;;58.00;2.30;;;24.10;1.00;;;;;;5049221;28;20440;-66
2021/09/28 10:58:09;;;;;;;57.33;2.00;;;23.80;1.00;;;;;;5049033;28;20835;-67
2021/09/28 11:01:11;;;;;;;57.57;2.30;;;23.20;1.00;;;;;;5047717;27;20524;-67
2021/09/28 11:03:58;;;;;;;57.87;2.50;;;22.70;1.00;;;;;;5048616;28;20452;-67
2021/09/28 11:06:45;;;;;;;57.50;2.30;;;22.30;1.00;;;;;;5048259;28;20443;-67
2021/09/28 11:09:13;;;;;;;57.73;2.70;;;22.20;1.00;;;;;;5048447;28;20832;-67
2021/09/28 11:11:41;;;;;;;57.70;2.20;;;22.00;1.00;;;;;;5048583;28;20455;-67
2021/09/28 11:14:11;;;;;;;58.17;2.60;;;22.30;1.00;;;;;;5048790;28;20441;-67
2021/09/28 11:16:42;;;;;;;57.43;2.30;;;22.40;1.00;;;;;;5048082;28;20483;-67
2021/09/28 11:19:10;;;;;;;57.57;2.40;;;22.30;1.00;;;;;;5048801;28;20472;-67
2021/09/28 11:21:41;;;;;;;58.60;3.30;;;22.10;1.00;;;;;;5048653;28;20811;-67
2021/09/28 11:24:10;;;;;;;57.47;2.57;;;21.90;1.00;;;;;;5048875;28;20956;-67
2021/09/28 11:26:39;;;;;;;57.87;2.70;;;21.70;1.00;;;;;;5048696;27;20501;-67
2021/09/28 11:29:08;;;;;;;57.90;2.40;;;21.70;1.00;;;;;;5048770;28;20487;-67
2021/09/28 11:31:37;;;;;;;57.77;2.37;;;21.80;1.00;;;;;;5047400;28;20548;-67
2021/09/28 11:34:04;;;;;;;57.70;2.30;;;22.00;1.00;;;;;;5048823;28;20525;-67
2021/09/28 11:36:33;;;;;;;57.57;2.30;;;23.00;1.00;;;;;;5048210;28;20480;-67
2021/09/28 11:39:00;;;;;;;58.70;2.70;;;24.30;1.00;;;;;;5048672;28;20461;-67
2021/09/28 11:41:27;;;;;;;58.40;2.67;;;25.30;1.00;;;;;;5048528;28;20548;-67
2021/09/28 11:43:56;;;;;;;57.70;2.40;;;26.10;1.00;;;;;;5049484;28;20449;-67
2021/09/28 11:46:25;;;;;;;57.90;2.30;;;26.50;1.00;;;;;;5048261;28;20478;-67
2021/09/28 11:48:58;;;;;;;58.70;2.50;;;26.30;1.00;;;;;;5048503;28;20469;-68
2021/09/28 11:51:26;;;;;;;57.47;2.10;;;26.20;1.00;;;;;;5048522;28;20451;-67
2021/09/28 11:53:55;;;;;;;58.77;2.67;;;26.60;1.00;;;;;;5048444;28;20824;-67
2021/09/28 11:56:24;;;;;;;57.47;2.30;;;27.50;1.00;;;;;;5048054;28;20572;-67
2021/09/28 11:58:53;;;;;;;58.20;2.50;;;28.20;1.00;;;;;;5048650;28;20563;-67
2021/09/28 12:01:22;;;;;;;57.60;2.10;;;28.80;1.00;;;;;;5048354;28;20448;-67
2021/09/28 12:04:12;;;;;;;57.37;2.10;;;29.50;1.00;;;;;;5049453;28;20454;-67
2021/09/28 12:06:59;;;;;;;58.40;3.30;;;30.40;1.00;;;;;;5051689;28;20491;-67
2021/09/28 12:09:26;;;;;;;57.27;2.10;;;30.60;1.00;;;;;;5051890;28;20460;-68
2021/09/28 12:12:02;;;;;;;57.67;2.50;;;30.80;1.00;;;;;;5051943;28;20851;-67
2021/09/28 12:14:37;;;;;;;57.60;2.20;;;31.40;1.00;;;;;;5052247;27;20432;-68
2021/09/28 12:17:12;;;;;;;57.30;2.20;;;32.10;1.00;;;;;;5051372;28;20574;-67
2021/09/28 12:19:42;;;;;;;58.00;2.30;;;32.50;1.00;;;;;;5051747;28;20538;-67
2021/09/28 12:22:09;;;;;;;57.97;2.30;;;32.60;1.00;;;;;;5132083;27;20451;-67
2021/09/28 12:24:45;;;;;;;57.47;2.20;;;32.00;1.00;;;;;;5156773;27;20922;-67
2021/09/28 12:27:12;;;;;;;57.20;2.07;;;31.80;1.00;;;;;;5156367;27;20538;-67
2021/09/28 12:29:41;;;;;;;57.10;2.10;;;32.10;1.00;;;;;;5156824;27;20811;-67
2021/09/28 12:32:08;;;;;;;57.07;1.80;;;32.40;1.00;;;;;;5156930;27;20450;-68
2021/09/28 12:34:54;;;;;;;57.60;2.10;;;33.00;1.00;;;;;;5156560;27;20439;-67
2021/09/28 12:37:22;;;;;;;56.87;2.10;;;33.50;1.00;;;;;;5156252;27;20994;-67
2021/09/28 12:40:05;;;;;;;56.97;1.90;;;33.30;1.00;;;;;;5156810;27;20445;-67
2021/09/28 12:42:32;;;;;;;56.97;2.00;;;32.80;1.00;;;;;;5156142;27;20518;-67
2021/09/28 12:45:01;;;;;;;57.23;1.83;;;32.80;1.00;;;;;;5156524;27;20440;-68
2021/09/28 12:47:33;;;;;;;58.77;2.03;;;32.60;1.00;;;;;;5156580;27;20464;-68
2021/09/28 12:50:18;;;;;;;57.70;2.37;;;32.20;1.00;;;;;;5156613;27;20444;-68
2021/09/28 12:52:45;;;;;;;57.47;2.13;;;31.30;1.00;;;;;;5156067;27;20542;-67
2021/09/28 12:55:13;;;;;;;57.67;2.33;;;29.70;1.00;;;;;;5155881;27;20447;-67
2021/09/28 12:57:40;;;;;;;57.73;2.30;;;28.50;1.00;;;;;;5155983;27;20841;-67
2021/09/28 13:00:07;;;;;;;57.77;2.40;;;27.70;1.00;;;;;;5156315;27;20494;-67
2021/09/28 13:02:34;;;;;;;57.97;2.33;;;27.20;1.00;;;;;;5155795;27;20450;-68